createdAt,value
2023-01-08T00:02:04.183Z,7.87
2023-01-08T00:07:06.178Z,7.86
2023-01-08T00:12:08.241Z,7.91
2023-01-08T00:17:10.293Z,7.92
2023-01-08T00:22:12.575Z,7.97
2023-01-08T00:27:14.736Z,7.89
2023-01-08T00:32:16.989Z,7.87
2023-01-08T00:37:20.211Z,7.82
2023-01-08T00:42:22.348Z,7.84
2023-01-08T00:47:24.504Z,7.90
2023-01-08T00:52:26.562Z,7.96
2023-01-08T00:57:35.209Z,8.05
2023-01-08T01:02:40.799Z,8.00
2023-01-08T01:07:44.380Z,8.01
2023-01-08T01:12:46.551Z,8.01
2023-01-08T01:17:48.519Z,7.89
2023-01-08T01:22:51.017Z,7.88
2023-01-08T01:27:53.262Z,7.87
2023-01-08T01:32:55.561Z,7.85
2023-01-08T01:37:57.592Z,7.86
2023-01-08T01:42:59.804Z,7.85
2023-01-08T01:48:12.049Z,7.90
2023-01-08T01:53:35.202Z,7.91
2023-01-08T01:58:37.435Z,7.82
2023-01-08T02:03:41.066Z,7.97
2023-01-08T02:09:41.966Z,8.05
2023-01-08T02:15:15.913Z,8.10
2023-01-08T02:20:25.128Z,8.22
2023-01-08T02:26:06.178Z,8.35
2023-01-08T02:31:09.481Z,8.46
2023-01-08T02:37:02.612Z,8.57
2023-01-08T02:42:47.695Z,8.51
2023-01-08T02:48:15.119Z,8.35
2023-01-08T02:53:33.281Z,8.40
2023-01-08T02:58:38.862Z,8.26
2023-01-08T03:03:46.937Z,8.28
2023-01-08T03:08:53.086Z,8.12
2023-01-08T03:14:07.321Z,8.02
2023-01-08T03:19:21.449Z,8.02
2023-01-08T03:24:31.025Z,8.01
2023-01-08T03:29:35.511Z,8.03
2023-01-08T03:34:41.017Z,8.09
2023-01-08T03:40:05.905Z,8.12
2023-01-08T03:45:08.850Z,8.13
2023-01-08T03:50:19.737Z,8.07
2023-01-08T03:55:21.863Z,8.03
2023-01-08T04:00:23.956Z,7.97
2023-01-08T04:05:26.361Z,7.92
2023-01-08T04:10:28.397Z,7.91
2023-01-08T04:15:30.972Z,7.89
2023-01-08T04:20:33.035Z,8.00
2023-01-08T04:25:35.003Z,8.02
2023-01-08T04:30:37.587Z,8.09
2023-01-08T04:35:39.925Z,8.24
2023-01-08T04:40:42.827Z,8.51
2023-01-08T04:45:44.926Z,8.82
2023-01-08T04:50:46.940Z,9.06
2023-01-08T04:55:49.190Z,9.24
2023-01-08T05:00:51.233Z,9.31
2023-01-08T05:05:53.315Z,9.41
2023-01-08T05:10:59.492Z,9.48
2023-01-08T05:16:02.274Z,9.46
2023-01-08T05:21:05.451Z,9.45
2023-01-08T05:26:07.698Z,9.51
2023-01-08T05:31:11.894Z,9.50
2023-01-08T05:36:14.869Z,9.51
2023-01-08T05:41:16.890Z,9.57
2023-01-08T05:46:18.952Z,9.53
2023-01-08T05:51:21.055Z,9.54
2023-01-08T05:56:23.087Z,9.42
2023-01-08T06:01:25.171Z,9.44
2023-01-08T06:06:27.257Z,9.40
2023-01-08T06:11:29.282Z,9.22
2023-01-08T06:16:31.287Z,9.32
2023-01-08T06:21:33.291Z,9.26
2023-01-08T06:26:35.402Z,9.52
2023-01-08T06:31:37.539Z,9.66
2023-01-08T06:36:39.689Z,9.70
2023-01-08T06:41:44.097Z,9.71
2023-01-08T06:46:46.772Z,9.58
2023-01-08T06:51:48.828Z,9.35
2023-01-08T06:56:54.046Z,9.27
2023-01-08T07:01:56.693Z,9.34
2023-01-08T07:06:58.856Z,9.13
2023-01-08T07:12:01.359Z,9.14
2023-01-08T07:17:03.388Z,9.02
2023-01-08T07:22:05.512Z,8.93
2023-01-08T07:27:07.534Z,9.03
2023-01-08T07:32:09.531Z,8.88
2023-01-08T07:37:12.172Z,8.80
2023-01-08T07:42:14.835Z,8.80
2023-01-08T07:47:17.151Z,8.73
2023-01-08T07:52:19.232Z,8.67
2023-01-08T07:57:21.264Z,8.62
2023-01-08T08:02:23.444Z,8.67
2023-01-08T08:07:25.619Z,8.69
2023-01-08T08:12:27.644Z,8.66
2023-01-08T08:17:29.714Z,8.60
2023-01-08T08:22:31.945Z,8.59
2023-01-08T08:27:33.977Z,8.54
2023-01-08T08:32:36.791Z,8.55
2023-01-08T08:37:38.870Z,8.58
2023-01-08T08:42:40.965Z,8.53
2023-01-08T08:47:43.344Z,8.51
2023-01-08T08:52:45.980Z,8.56
2023-01-08T08:57:48.548Z,8.57
2023-01-08T09:02:51.222Z,8.54
2023-01-08T09:07:54.427Z,8.63
2023-01-08T09:12:56.707Z,8.73
2023-01-08T09:17:59.409Z,8.66
2023-01-08T09:23:03.416Z,8.81
2023-01-08T09:28:12.325Z,8.85
2023-01-08T09:33:14.439Z,8.92
2023-01-08T09:38:16.495Z,8.93
2023-01-08T09:43:22.920Z,8.97
2023-01-08T09:48:31.144Z,8.93
2023-01-08T09:53:33.731Z,9.07
2023-01-08T09:58:58.855Z,9.11
2023-01-08T10:04:19.938Z,9.11
2023-01-08T10:09:28.729Z,9.17
2023-01-08T10:14:37.676Z,9.21
2023-01-08T10:19:39.769Z,9.23
2023-01-08T10:24:43.400Z,9.29
2023-01-08T10:29:46.022Z,9.41
2023-01-08T10:34:52.827Z,9.41
2023-01-08T10:40:05.697Z,9.54
2023-01-08T10:45:20.686Z,9.51
2023-01-08T10:50:35.003Z,9.49
2023-01-08T10:55:37.580Z,9.55
2023-01-08T11:00:40.178Z,9.84
2023-01-08T11:05:43.320Z,9.92
2023-01-08T11:10:56.774Z,9.83
2023-01-08T11:16:10.593Z,10.02
2023-01-08T11:21:30.840Z,10.08
2023-01-08T11:26:37.669Z,10.02
2023-01-08T11:31:59.936Z,10.08
2023-01-08T11:37:19.794Z,10.22
2023-01-08T11:43:05.976Z,10.31
2023-01-08T11:48:48.233Z,10.42
2023-01-08T11:54:18.069Z,10.21
2023-01-08T11:59:55.059Z,10.27
2023-01-08T12:05:54.573Z,10.16
2023-01-08T12:11:25.183Z,10.27
2023-01-08T12:17:12.531Z,10.30
2023-01-08T12:23:12.562Z,10.38
2023-01-08T12:28:50.690Z,10.48
2023-01-08T12:34:05.478Z,10.66
2023-01-08T12:39:33.975Z,10.51
2023-01-08T12:44:38.270Z,10.57
2023-01-08T12:49:56.484Z,10.72
2023-01-08T12:55:05.732Z,10.55
2023-01-08T13:00:42.309Z,10.44
2023-01-08T13:05:44.914Z,10.52
2023-01-08T13:10:54.565Z,10.57
2023-01-08T13:16:11.309Z,10.64
2023-01-08T13:21:14.490Z,10.66
2023-01-08T13:26:31.802Z,10.70
2023-01-08T13:31:41.640Z,10.68
2023-01-08T13:36:55.645Z,10.57
2023-01-08T13:42:22.894Z,10.76
2023-01-08T13:47:43.485Z,11.15
2023-01-08T13:52:57.053Z,11.51
2023-01-08T13:58:04.889Z,11.56
2023-01-08T14:03:37.415Z,11.64
2023-01-08T14:09:04.874Z,11.65
2023-01-08T14:14:17.336Z,11.73
2023-01-08T14:19:26.074Z,11.86
2023-01-08T14:24:28.499Z,11.78
2023-01-08T14:29:32.957Z,11.30
2023-01-08T14:34:42.162Z,11.25
2023-01-08T14:39:48.575Z,11.19
2023-01-08T14:44:57.630Z,11.30
2023-01-08T14:50:00.569Z,11.27
2023-01-08T14:55:04.349Z,11.32
2023-01-08T15:00:07.740Z,10.88
2023-01-08T15:05:19.600Z,10.77
2023-01-08T15:10:38.212Z,11.03
2023-01-08T15:15:57.169Z,11.18
2023-01-08T15:20:59.330Z,11.20
2023-01-08T15:26:01.675Z,11.11
2023-01-08T15:31:03.697Z,11.05
2023-01-08T15:36:06.985Z,10.91
2023-01-08T15:41:13.406Z,10.88
2023-01-08T15:46:16.103Z,10.76
2023-01-08T15:51:18.277Z,10.90
2023-01-08T15:56:20.285Z,10.92
2023-01-08T16:01:22.550Z,10.92
2023-01-08T16:06:25.285Z,10.78
2023-01-08T16:11:27.521Z,10.92
2023-01-08T16:16:29.698Z,10.87
2023-01-08T16:21:31.761Z,10.78
2023-01-08T16:26:33.897Z,10.79
2023-01-08T16:31:38.305Z,10.88
2023-01-08T16:36:40.676Z,10.91
2023-01-08T16:41:42.913Z,10.89
2023-01-08T16:46:45.281Z,10.92
2023-01-08T16:51:47.494Z,10.84
2023-01-08T16:56:49.525Z,10.95
2023-01-08T17:01:52.728Z,11.16
2023-01-08T17:06:54.744Z,11.22
2023-01-08T17:11:56.767Z,10.97
2023-01-08T17:16:59.073Z,10.96
2023-01-08T17:22:01.072Z,10.88
2023-01-08T17:27:03.161Z,10.88
2023-01-08T17:32:05.557Z,10.80
2023-01-08T17:37:07.546Z,10.61
2023-01-08T17:42:25.553Z,10.65
2023-01-08T17:47:27.648Z,10.85
2023-01-08T17:52:29.653Z,10.94
2023-01-08T17:57:31.772Z,11.18
2023-01-08T18:02:36.665Z,11.26
2023-01-08T18:07:38.781Z,11.11
2023-01-08T18:12:40.924Z,10.93
2023-01-08T18:17:43.460Z,10.89
2023-01-08T18:22:46.357Z,10.98
2023-01-08T18:27:48.590Z,10.98
2023-01-08T18:32:50.679Z,10.86
2023-01-08T18:37:52.904Z,10.73
2023-01-08T18:42:54.901Z,10.58
2023-01-08T18:47:56.963Z,10.71
2023-01-08T18:52:59.174Z,10.66
2023-01-08T18:58:01.234Z,10.64
2023-01-08T19:03:06.950Z,10.52
2023-01-08T19:08:09.941Z,10.49
2023-01-08T19:13:12.310Z,10.57
2023-01-08T19:18:14.795Z,10.47
2023-01-08T19:23:17.197Z,10.33
2023-01-08T19:28:19.435Z,10.43
2023-01-08T19:33:21.762Z,10.51
2023-01-08T19:38:23.974Z,10.62
2023-01-08T19:43:44.848Z,10.53
2023-01-08T19:48:47.378Z,10.76
2023-01-08T19:53:49.396Z,10.48
2023-01-08T19:58:51.495Z,10.47
2023-01-08T20:03:54.588Z,10.65
2023-01-08T20:08:59.949Z,10.55
2023-01-08T20:14:05.368Z,10.33
2023-01-08T20:19:07.444Z,10.31
2023-01-08T20:24:15.719Z,10.33
2023-01-08T20:29:18.247Z,10.17
2023-01-08T20:34:20.325Z,9.89
2023-01-08T20:39:22.961Z,9.78
2023-01-08T20:44:24.975Z,9.58
2023-01-08T20:49:27.082Z,9.47
2023-01-08T20:54:30.360Z,9.39
2023-01-08T20:59:32.509Z,9.17
2023-01-08T21:04:34.602Z,9.11
2023-01-08T21:09:38.043Z,8.99
2023-01-08T21:14:41.889Z,8.98
2023-01-08T21:19:45.314Z,9.08
2023-01-08T21:24:47.357Z,9.10
2023-01-08T21:29:49.700Z,9.20
2023-01-08T21:34:52.418Z,9.21
2023-01-08T21:39:54.493Z,9.25
2023-01-08T21:45:15.287Z,9.38
2023-01-08T21:50:17.766Z,9.53
2023-01-08T21:55:19.852Z,9.44
2023-01-08T22:00:23.842Z,9.32
2023-01-08T22:05:27.483Z,9.44
2023-01-08T22:10:29.622Z,9.57
2023-01-08T22:15:31.667Z,9.54
2023-01-08T22:20:33.743Z,9.53
2023-01-08T22:25:40.912Z,9.53
2023-01-08T22:30:43.251Z,9.45
2023-01-08T22:35:45.819Z,9.50
2023-01-08T22:40:47.802Z,9.27
2023-01-08T22:45:59.737Z,9.29
2023-01-08T22:51:05.218Z,9.27
2023-01-08T22:56:12.401Z,9.35
2023-01-08T23:01:27.433Z,9.34
2023-01-08T23:06:31.784Z,9.24
2023-01-08T23:11:33.996Z,9.19
2023-01-08T23:16:36.163Z,9.02
2023-01-08T23:21:38.760Z,9.07
2023-01-08T23:26:41.128Z,9.26
2023-01-08T23:31:44.467Z,9.33
2023-01-08T23:36:46.583Z,9.08
2023-01-08T23:41:48.625Z,9.26
2023-01-08T23:46:50.769Z,9.20
2023-01-08T23:51:53.173Z,8.79
2023-01-08T23:56:55.298Z,8.63
